BCY8 LJLJ-LQSA
Flight info
| Callsign | BCY8 |
|---|---|
| Flight time | 0h 40m |
| Altitude | 25000 |
| Route | LUPIX2E LUPIX DCT GORPA DCT KUSIB DCT BOSNA |
| Aircraft | RJ85/M-SDFGIRWY/LB1 |
Departure
| Time | 2026-04-23 08:02 |
|---|---|
| Airport | Ljubljana Jože Pučnik Airport (LJLJ) |
Arrival
| Time | 2026-04-23 08:42 |
|---|---|
| Airport | Sarajevo International Airport (LQSA) |
| Time | Latitude | Longitude | Altitude | Speed | Heading |
|---|---|---|---|---|---|
| 2026-04-23 07:26 | 46.23051 | 14.45370 | 1261 ft | 0 kts | 34° |
| 2026-04-23 07:45 | 46.23050 | 14.45368 | 1261 ft | 1 kts | 34° |
| 2026-04-23 07:45 | 46.23035 | 14.45354 | 1266 ft | 3 kts | 32° |
| 2026-04-23 07:45 | 46.23021 | 14.45340 | 1266 ft | 3 kts | 46° |
| 2026-04-23 07:46 | 46.23012 | 14.45316 | 1268 ft | 3 kts | 83° |
| 2026-04-23 07:46 | 46.23014 | 14.45288 | 1268 ft | 3 kts | 109° |
| 2026-04-23 07:46 | 46.23019 | 14.45271 | 1263 ft | 1 kts | 120° |
| 2026-04-23 07:46 | 46.23021 | 14.45268 | 1265 ft | 0 kts | 120° |
| 2026-04-23 07:52 | 46.23019 | 14.45272 | 1264 ft | 2 kts | 120° |
| 2026-04-23 07:52 | 46.23005 | 14.45305 | 1263 ft | 5 kts | 122° |
| 2026-04-23 07:53 | 46.22977 | 14.45361 | 1265 ft | 8 kts | 151° |
| 2026-04-23 07:53 | 46.22915 | 14.45390 | 1262 ft | 10 kts | 162° |
| 2026-04-23 07:53 | 46.22862 | 14.45432 | 1262 ft | 8 kts | 135° |
| 2026-04-23 07:53 | 46.22808 | 14.45466 | 1259 ft | 9 kts | 199° |
| 2026-04-23 07:54 | 46.22751 | 14.45486 | 1258 ft | 10 kts | 135° |
| 2026-04-23 07:54 | 46.22703 | 14.45576 | 1257 ft | 12 kts | 127° |
| 2026-04-23 07:54 | 46.22647 | 14.45683 | 1255 ft | 14 kts | 127° |
| 2026-04-23 07:54 | 46.22582 | 14.45805 | 1258 ft | 16 kts | 127° |
| 2026-04-23 07:55 | 46.22514 | 14.45944 | 1251 ft | 17 kts | 124° |
| 2026-04-23 07:55 | 46.22441 | 14.46089 | 1243 ft | 19 kts | 126° |
| 2026-04-23 07:55 | 46.22360 | 14.46245 | 1236 ft | 20 kts | 125° |
| 2026-04-23 07:55 | 46.22276 | 14.46413 | 1232 ft | 21 kts | 126° |
| 2026-04-23 07:56 | 46.22185 | 14.46592 | 1228 ft | 23 kts | 126° |
| 2026-04-23 07:56 | 46.22090 | 14.46779 | 1223 ft | 24 kts | 128° |
| 2026-04-23 07:56 | 46.21988 | 14.46973 | 1219 ft | 25 kts | 125° |
| 2026-04-23 07:56 | 46.21883 | 14.47175 | 1214 ft | 26 kts | 127° |
| 2026-04-23 07:57 | 46.21774 | 14.47380 | 1209 ft | 25 kts | 127° |
| 2026-04-23 07:57 | 46.21726 | 14.47401 | 1208 ft | 0 kts | 226° |
| 2026-04-23 07:57 | 46.21725 | 14.47399 | 1208 ft | 0 kts | 226° |
| 2026-04-23 07:57 | 46.21724 | 14.47398 | 1208 ft | 0 kts | 226° |
| 2026-04-23 07:58 | 46.21723 | 14.47396 | 1208 ft | 0 kts | 226° |
| 2026-04-23 07:58 | 46.21721 | 14.47394 | 1208 ft | 0 kts | 226° |
| 2026-04-23 07:58 | 46.21718 | 14.47390 | 1208 ft | 1 kts | 226° |
| 2026-04-23 07:58 | 46.21715 | 14.47384 | 1208 ft | 1 kts | 226° |
| 2026-04-23 07:59 | 46.21710 | 14.47377 | 1208 ft | 1 kts | 226° |
| 2026-04-23 07:59 | 46.21705 | 14.47369 | 1208 ft | 1 kts | 226° |
| 2026-04-23 07:59 | 46.21698 | 14.47359 | 1208 ft | 2 kts | 226° |
| 2026-04-23 07:59 | 46.21690 | 14.47347 | 1208 ft | 2 kts | 226° |
| 2026-04-23 08:00 | 46.21681 | 14.47334 | 1209 ft | 1 kts | 218° |
| 2026-04-23 08:00 | 46.21671 | 14.47325 | 1209 ft | 2 kts | 214° |
| 2026-04-23 08:00 | 46.21656 | 14.47310 | 1209 ft | 3 kts | 214° |
| 2026-04-23 08:00 | 46.21634 | 14.47289 | 1209 ft | 4 kts | 214° |
| 2026-04-23 08:01 | 46.21615 | 14.47254 | 1209 ft | 5 kts | 265° |
| 2026-04-23 08:01 | 46.21631 | 14.47208 | 1210 ft | 15 kts | 306° |
| 2026-04-23 08:01 | 46.21837 | 14.46807 | 1220 ft | 82 kts | 306° |
| 2026-04-23 08:01 | 46.22289 | 14.45925 | 1246 ft | 134 kts | 306° |
| 2026-04-23 08:02 | 46.22893 | 14.44759 | 1514 ft | 149 kts | 307° |
| 2026-04-23 08:02 | 46.23511 | 14.43552 | 2239 ft | 145 kts | 306° |
| 2026-04-23 08:02 | 46.24295 | 14.42771 | 2975 ft | 140 kts | 0° |
| 2026-04-23 08:02 | 46.25070 | 14.43440 | 3620 ft | 138 kts | 67° |
| 2026-04-23 08:03 | 46.25004 | 14.44790 | 4082 ft | 142 kts | 126° |
| 2026-04-23 08:03 | 46.24284 | 14.45762 | 4512 ft | 146 kts | 138° |
| 2026-04-23 08:03 | 46.23500 | 14.46748 | 4942 ft | 154 kts | 137° |
| 2026-04-23 08:03 | 46.22604 | 14.47643 | 5504 ft | 159 kts | 148° |
| 2026-04-23 08:04 | 46.21539 | 14.48229 | 5994 ft | 174 kts | 165° |
| 2026-04-23 08:04 | 46.20429 | 14.49135 | 6182 ft | 198 kts | 127° |
| 2026-04-23 08:04 | 46.19568 | 14.50718 | 6564 ft | 205 kts | 121° |
| 2026-04-23 08:04 | 46.18717 | 14.52433 | 7107 ft | 216 kts | 120° |
| 2026-04-23 08:05 | 46.17837 | 14.54281 | 7668 ft | 230 kts | 119° |
| 2026-04-23 08:05 | 46.16916 | 14.56219 | 8468 ft | 236 kts | 119° |
| 2026-04-23 08:05 | 46.15969 | 14.58179 | 9354 ft | 240 kts | 119° |
| 2026-04-23 08:05 | 46.14979 | 14.60171 | 10073 ft | 252 kts | 119° |
| 2026-04-23 08:06 | 46.13919 | 14.62282 | 10556 ft | 268 kts | 120° |
| 2026-04-23 08:06 | 46.12800 | 14.64515 | 11080 ft | 282 kts | 120° |
| 2026-04-23 08:06 | 46.11613 | 14.66844 | 11648 ft | 293 kts | 121° |
| 2026-04-23 08:06 | 46.10378 | 14.69245 | 12165 ft | 305 kts | 120° |
| 2026-04-23 08:07 | 46.09089 | 14.71755 | 12492 ft | 318 kts | 121° |
| 2026-04-23 08:07 | 46.07752 | 14.74343 | 12994 ft | 324 kts | 121° |
| 2026-04-23 08:07 | 46.06405 | 14.76970 | 13543 ft | 327 kts | 120° |
| 2026-04-23 08:07 | 46.05066 | 14.79619 | 13906 ft | 337 kts | 120° |
| 2026-04-23 08:08 | 46.03681 | 14.82373 | 14334 ft | 342 kts | 120° |
| 2026-04-23 08:08 | 46.02298 | 14.85162 | 14811 ft | 343 kts | 119° |
| 2026-04-23 08:08 | 46.00926 | 14.87977 | 15275 ft | 345 kts | 119° |
| 2026-04-23 08:08 | 45.99541 | 14.90805 | 15727 ft | 347 kts | 120° |
| 2026-04-23 08:09 | 45.98133 | 14.93638 | 16146 ft | 349 kts | 120° |
| 2026-04-23 08:09 | 45.96716 | 14.96487 | 16581 ft | 352 kts | 120° |
| 2026-04-23 08:09 | 45.95284 | 14.99355 | 16994 ft | 354 kts | 120° |
| 2026-04-23 08:09 | 45.93846 | 15.02241 | 17425 ft | 356 kts | 120° |
| 2026-04-23 08:10 | 45.92403 | 15.05141 | 17854 ft | 358 kts | 120° |
| 2026-04-23 08:10 | 45.90945 | 15.08061 | 18264 ft | 360 kts | 120° |
| 2026-04-23 08:10 | 45.88014 | 15.13946 | 19026 ft | 363 kts | 120° |
| 2026-04-23 08:11 | 45.86544 | 15.16898 | 19435 ft | 364 kts | 119° |
| 2026-04-23 08:11 | 45.85081 | 15.19867 | 19761 ft | 365 kts | 119° |
| 2026-04-23 08:11 | 45.83603 | 15.22835 | 20122 ft | 366 kts | 120° |
| 2026-04-23 08:11 | 45.82112 | 15.25802 | 20491 ft | 367 kts | 120° |
| 2026-04-23 08:12 | 45.80616 | 15.28781 | 20855 ft | 368 kts | 120° |
| 2026-04-23 08:12 | 45.79140 | 15.31714 | 21210 ft | 369 kts | 120° |
| 2026-04-23 08:12 | 45.77636 | 15.34711 | 21517 ft | 371 kts | 120° |
| 2026-04-23 08:12 | 45.76098 | 15.37690 | 21857 ft | 373 kts | 121° |
| 2026-04-23 08:13 | 45.74506 | 15.40631 | 22194 ft | 374 kts | 122° |
| 2026-04-23 08:13 | 45.72889 | 15.43562 | 22518 ft | 376 kts | 122° |
| 2026-04-23 08:13 | 45.71260 | 15.46488 | 22849 ft | 377 kts | 122° |
| 2026-04-23 08:13 | 45.69624 | 15.49419 | 23086 ft | 377 kts | 122° |
| 2026-04-23 08:14 | 45.67996 | 15.52376 | 23204 ft | 375 kts | 122° |
| 2026-04-23 08:14 | 45.66400 | 15.55292 | 23228 ft | 372 kts | 122° |
| 2026-04-23 08:14 | 45.64805 | 15.58204 | 23240 ft | 373 kts | 122° |
| 2026-04-23 08:14 | 45.63177 | 15.61124 | 23248 ft | 379 kts | 122° |
| 2026-04-23 08:15 | 45.62081 | 15.63089 | 23255 ft | 384 kts | 123° |
| 2026-04-23 08:15 | 45.60399 | 15.66098 | 23255 ft | 388 kts | 123° |
| 2026-04-23 08:15 | 45.58718 | 15.69123 | 23256 ft | 388 kts | 122° |
| 2026-04-23 08:15 | 45.57055 | 15.72158 | 23252 ft | 389 kts | 122° |
| 2026-04-23 08:16 | 45.55368 | 15.75189 | 23248 ft | 389 kts | 123° |
| 2026-04-23 08:16 | 45.53683 | 15.78208 | 23252 ft | 389 kts | 123° |
| 2026-04-23 08:16 | 45.51989 | 15.81232 | 23246 ft | 390 kts | 123° |
| 2026-04-23 08:16 | 45.50298 | 15.84250 | 23244 ft | 389 kts | 123° |
| 2026-04-23 08:17 | 45.48618 | 15.87280 | 23243 ft | 390 kts | 122° |
| 2026-04-23 08:17 | 45.46954 | 15.90267 | 23239 ft | 391 kts | 123° |
| 2026-04-23 08:17 | 45.45258 | 15.93296 | 23240 ft | 391 kts | 123° |
| 2026-04-23 08:17 | 45.43559 | 15.96322 | 23244 ft | 391 kts | 123° |
| 2026-04-23 08:18 | 45.41862 | 15.99335 | 23242 ft | 390 kts | 123° |
| 2026-04-23 08:18 | 45.40174 | 16.02357 | 23231 ft | 390 kts | 122° |
| 2026-04-23 08:18 | 45.38481 | 16.05379 | 23229 ft | 391 kts | 123° |
| 2026-04-23 08:18 | 45.36788 | 16.08392 | 23245 ft | 391 kts | 123° |
| 2026-04-23 08:19 | 45.35088 | 16.11417 | 23238 ft | 391 kts | 122° |
| 2026-04-23 08:19 | 45.33393 | 16.14451 | 23242 ft | 392 kts | 123° |
| 2026-04-23 08:19 | 45.31682 | 16.17479 | 23241 ft | 392 kts | 123° |
| 2026-04-23 08:19 | 45.29974 | 16.20500 | 23239 ft | 392 kts | 123° |
| 2026-04-23 08:20 | 45.28260 | 16.23518 | 23240 ft | 392 kts | 123° |
| 2026-04-23 08:20 | 45.26548 | 16.26534 | 23228 ft | 392 kts | 123° |
| 2026-04-23 08:20 | 45.24855 | 16.29511 | 23241 ft | 392 kts | 123° |
| 2026-04-23 08:20 | 45.23156 | 16.32540 | 23231 ft | 392 kts | 122° |
| 2026-04-23 08:21 | 45.21448 | 16.35566 | 23242 ft | 393 kts | 123° |
| 2026-04-23 08:21 | 45.19735 | 16.38588 | 23261 ft | 393 kts | 123° |
| 2026-04-23 08:21 | 45.18017 | 16.41611 | 23237 ft | 393 kts | 123° |
| 2026-04-23 08:21 | 45.16300 | 16.44620 | 23241 ft | 393 kts | 123° |
| 2026-04-23 08:22 | 45.14580 | 16.47630 | 23237 ft | 393 kts | 123° |
| 2026-04-23 08:22 | 45.12837 | 16.50623 | 23234 ft | 393 kts | 123° |
| 2026-04-23 08:22 | 45.11089 | 16.53602 | 23233 ft | 393 kts | 124° |
| 2026-04-23 08:22 | 45.09335 | 16.56577 | 23231 ft | 393 kts | 124° |
| 2026-04-23 08:23 | 45.07580 | 16.59549 | 23233 ft | 393 kts | 124° |
| 2026-04-23 08:23 | 45.05826 | 16.62520 | 23235 ft | 394 kts | 124° |
| 2026-04-23 08:23 | 45.04064 | 16.65491 | 23235 ft | 394 kts | 124° |
| 2026-04-23 08:23 | 45.02304 | 16.68454 | 23253 ft | 394 kts | 124° |
| 2026-04-23 08:24 | 45.00564 | 16.71378 | 23243 ft | 393 kts | 124° |
| 2026-04-23 08:24 | 44.98806 | 16.74334 | 23237 ft | 393 kts | 124° |
| 2026-04-23 08:24 | 44.97043 | 16.77304 | 23236 ft | 395 kts | 124° |
| 2026-04-23 08:24 | 44.95258 | 16.80258 | 23235 ft | 395 kts | 124° |
| 2026-04-23 08:25 | 44.93482 | 16.83219 | 23237 ft | 394 kts | 124° |
| 2026-04-23 08:25 | 44.91717 | 16.86179 | 23231 ft | 394 kts | 124° |
| 2026-04-23 08:25 | 44.89952 | 16.89145 | 23237 ft | 394 kts | 124° |
| 2026-04-23 08:25 | 44.88190 | 16.92094 | 23237 ft | 394 kts | 124° |
| 2026-04-23 08:26 | 44.86408 | 16.95028 | 23236 ft | 394 kts | 124° |
| 2026-04-23 08:26 | 44.84640 | 16.97980 | 23253 ft | 394 kts | 124° |
| 2026-04-23 08:26 | 44.82871 | 17.00936 | 23238 ft | 394 kts | 124° |
| 2026-04-23 08:26 | 44.81105 | 17.03891 | 23241 ft | 394 kts | 124° |
| 2026-04-23 08:27 | 44.79353 | 17.06798 | 23241 ft | 395 kts | 124° |
| 2026-04-23 08:27 | 44.77566 | 17.09726 | 23235 ft | 394 kts | 124° |
| 2026-04-23 08:27 | 44.75794 | 17.12670 | 23232 ft | 394 kts | 124° |
| 2026-04-23 08:27 | 44.74025 | 17.15617 | 23236 ft | 394 kts | 124° |
| 2026-04-23 08:28 | 44.72241 | 17.18558 | 23225 ft | 395 kts | 124° |
| 2026-04-23 08:28 | 44.70448 | 17.21488 | 23216 ft | 394 kts | 124° |
| 2026-04-23 08:28 | 44.68672 | 17.24429 | 23223 ft | 395 kts | 124° |
| 2026-04-23 08:28 | 44.66900 | 17.27371 | 23242 ft | 395 kts | 124° |
| 2026-04-23 08:29 | 44.65119 | 17.30303 | 23235 ft | 395 kts | 124° |
| 2026-04-23 08:29 | 44.63323 | 17.33221 | 23240 ft | 395 kts | 124° |
| 2026-04-23 08:29 | 44.61545 | 17.36162 | 23241 ft | 394 kts | 124° |
| 2026-04-23 08:29 | 44.59766 | 17.39092 | 23244 ft | 395 kts | 124° |
| 2026-04-23 08:30 | 44.57967 | 17.42012 | 23204 ft | 396 kts | 124° |
| 2026-04-23 08:30 | 44.56167 | 17.44969 | 22660 ft | 399 kts | 124° |
| 2026-04-23 08:30 | 44.54384 | 17.47876 | 22145 ft | 399 kts | 125° |
| 2026-04-23 08:30 | 44.52572 | 17.50820 | 21632 ft | 397 kts | 125° |
| 2026-04-23 08:31 | 44.50791 | 17.53707 | 21187 ft | 386 kts | 125° |
| 2026-04-23 08:31 | 44.49041 | 17.56536 | 20871 ft | 373 kts | 125° |
| 2026-04-23 08:31 | 44.47397 | 17.59229 | 20409 ft | 365 kts | 124° |
| 2026-04-23 08:31 | 44.45758 | 17.61931 | 19810 ft | 363 kts | 125° |
| 2026-04-23 08:32 | 44.44124 | 17.64597 | 19184 ft | 359 kts | 125° |
| 2026-04-23 08:32 | 44.42500 | 17.67251 | 18561 ft | 358 kts | 125° |
| 2026-04-23 08:32 | 44.40886 | 17.69890 | 17909 ft | 356 kts | 125° |
| 2026-04-23 08:32 | 44.39266 | 17.72499 | 17280 ft | 353 kts | 126° |
| 2026-04-23 08:33 | 44.37568 | 17.74971 | 16672 ft | 354 kts | 135° |
| 2026-04-23 08:33 | 44.35564 | 17.76986 | 16063 ft | 355 kts | 142° |
| 2026-04-23 08:33 | 44.33444 | 17.78746 | 15415 ft | 354 kts | 146° |
| 2026-04-23 08:33 | 44.31277 | 17.80367 | 14836 ft | 352 kts | 148° |
| 2026-04-23 08:34 | 44.29102 | 17.81911 | 14320 ft | 349 kts | 148° |
| 2026-04-23 08:34 | 44.26947 | 17.83428 | 13737 ft | 345 kts | 149° |
| 2026-04-23 08:34 | 44.24807 | 17.84928 | 13110 ft | 343 kts | 149° |
| 2026-04-23 08:34 | 44.22689 | 17.86414 | 12532 ft | 339 kts | 149° |
| 2026-04-23 08:35 | 44.20591 | 17.87895 | 11991 ft | 335 kts | 149° |
| 2026-04-23 08:35 | 44.18582 | 17.89318 | 11806 ft | 321 kts | 149° |
| 2026-04-23 08:35 | 44.16635 | 17.90700 | 11659 ft | 308 kts | 149° |
| 2026-04-23 08:35 | 44.14752 | 17.92036 | 11417 ft | 301 kts | 148° |
| 2026-04-23 08:36 | 44.12901 | 17.93359 | 11093 ft | 297 kts | 148° |
| 2026-04-23 08:36 | 44.11059 | 17.94683 | 10698 ft | 298 kts | 148° |
| 2026-04-23 08:36 | 44.09222 | 17.96016 | 10338 ft | 296 kts | 148° |
| 2026-04-23 08:36 | 44.07398 | 17.97338 | 9773 ft | 295 kts | 148° |
| 2026-04-23 08:37 | 44.05573 | 17.98653 | 9049 ft | 295 kts | 148° |
| 2026-04-23 08:37 | 44.03751 | 17.99937 | 8427 ft | 292 kts | 149° |
| 2026-04-23 08:37 | 44.01967 | 18.01250 | 7772 ft | 289 kts | 143° |
| 2026-04-23 08:37 | 44.00357 | 18.02899 | 7476 ft | 287 kts | 138° |
| 2026-04-23 08:38 | 43.98818 | 18.04675 | 7120 ft | 287 kts | 137° |
| 2026-04-23 08:38 | 43.97304 | 18.06473 | 6728 ft | 285 kts | 136° |
| 2026-04-23 08:38 | 43.95798 | 18.08265 | 6292 ft | 286 kts | 137° |
| 2026-04-23 08:38 | 43.94275 | 18.10056 | 5892 ft | 288 kts | 137° |
| 2026-04-23 08:39 | 43.92739 | 18.11854 | 5493 ft | 290 kts | 138° |
| 2026-04-23 08:39 | 43.91186 | 18.13611 | 5070 ft | 283 kts | 138° |
| 2026-04-23 08:39 | 43.89700 | 18.15291 | 4622 ft | 267 kts | 136° |
| 2026-04-23 08:39 | 43.88492 | 18.17123 | 4174 ft | 251 kts | 118° |
| 2026-04-23 08:40 | 43.87724 | 18.19230 | 3822 ft | 241 kts | 117° |
| 2026-04-23 08:40 | 43.86892 | 18.21214 | 3519 ft | 234 kts | 115° |
| 2026-04-23 08:40 | 43.86214 | 18.23109 | 3241 ft | 200 kts | 112° |
| 2026-04-23 08:40 | 43.85617 | 18.24672 | 3000 ft | 173 kts | 113° |
| 2026-04-23 08:41 | 43.85095 | 18.26097 | 2746 ft | 163 kts | 112° |
| 2026-04-23 08:41 | 43.84595 | 18.27443 | 2471 ft | 151 kts | 111° |
| 2026-04-23 08:41 | 43.84129 | 18.28684 | 2240 ft | 139 kts | 109° |
| 2026-04-23 08:41 | 43.83696 | 18.29826 | 2050 ft | 130 kts | 109° |
| 2026-04-23 08:42 | 43.83284 | 18.30933 | 1863 ft | 130 kts | 111° |
| 2026-04-23 08:42 | 43.82873 | 18.32050 | 1681 ft | 125 kts | 111° |
| 2026-04-23 08:42 | 43.82501 | 18.33036 | 1667 ft | 104 kts | 114° |
| 2026-04-23 08:42 | 43.82267 | 18.33699 | 1689 ft | 39 kts | 91° |
| 2026-04-23 08:43 | 43.82382 | 18.33754 | 1686 ft | 14 kts | 348° |
| 2026-04-23 08:43 | 43.82421 | 18.33715 | 1685 ft | 3 kts | 297° |
| 2026-04-23 08:43 | 43.82424 | 18.33706 | 1687 ft | 2 kts | 297° |
| 2026-04-23 08:43 | 43.82431 | 18.33687 | 1688 ft | 3 kts | 296° |
| 2026-04-23 08:44 | 43.82441 | 18.33660 | 1689 ft | 3 kts | 296° |
| 2026-04-23 08:44 | 43.82453 | 18.33627 | 1685 ft | 4 kts | 296° |
| 2026-04-23 08:44 | 43.82466 | 18.33589 | 1684 ft | 0 kts | 296° |
| 2026-04-23 08:44 | 43.82474 | 18.33579 | 1681 ft | 4 kts | 327° |
| 2026-04-23 08:45 | 43.82502 | 18.33591 | 1681 ft | 5 kts | 39° |
| 2026-04-23 08:45 | 43.82526 | 18.33612 | 1684 ft | 4 kts | 27° |
| 2026-04-23 08:45 | 43.82535 | 18.33619 | 1681 ft | 0 kts | 28° |